Terminal Aerodrome Forecast
Issued by NWS Mt. Holly, NJ

Home | Current Version | Previous Version | Text Only | Print | Product List | Glossary On
Versions: 1 2 3 4 5 6 7 8 9 10 11 12 13 14
000
FTUS41 KPHI 231100
TAFTTN
TAF
KTTN 231135Z 2312/2412 23005KT P6SM SCT100
     FM240100 16005KT P6SM OVC050
     FM240300 15006KT 5SM -RA BR OVC020
     FM240600 15010KT 4SM -RA BR OVC015
     FM240800 15015G25KT 4SM -RA BR OVC007 WS020/16050KT=

USA.gov is the U.S. government's official web portal to all federal, state and local government web resources and services.